createdAt,value
2024-01-19T00:00:48.601Z,0.65
2024-01-19T00:01:48.646Z,0.67
2024-01-19T00:02:48.822Z,0.67
2024-01-19T00:03:48.789Z,0.66
2024-01-19T00:04:48.860Z,0.67
2024-01-19T00:05:49.168Z,0.66
2024-01-19T00:06:49.007Z,0.66
2024-01-19T00:07:49.088Z,0.65
2024-01-19T00:08:49.170Z,0.65
2024-01-19T00:09:49.184Z,0.66
2024-01-19T00:10:49.272Z,0.66
2024-01-19T00:11:49.375Z,0.65
2024-01-19T00:12:49.412Z,0.65
2024-01-19T00:13:49.482Z,0.65
2024-01-19T00:14:49.614Z,0.65
2024-01-19T00:15:49.608Z,0.66
2024-01-19T00:16:49.686Z,0.65
2024-01-19T00:17:49.778Z,0.65
2024-01-19T00:18:49.781Z,0.65
2024-01-19T00:19:49.850Z,0.64
2024-01-19T00:20:49.961Z,0.64
2024-01-19T00:21:50.013Z,0.64
2024-01-19T00:22:50.104Z,0.65
2024-01-19T00:23:50.295Z,0.65
2024-01-19T00:24:50.210Z,0.64
2024-01-19T00:25:50.322Z,0.65
2024-01-19T00:26:50.524Z,0.65
2024-01-19T00:27:50.411Z,0.65
2024-01-19T00:28:50.491Z,0.64
2024-01-19T00:29:50.635Z,0.64
2024-01-19T00:30:50.622Z,0.64
2024-01-19T00:31:50.685Z,0.62
2024-01-19T00:32:50.814Z,0.64
2024-01-19T00:33:50.823Z,0.63
2024-01-19T00:34:50.955Z,0.63
2024-01-19T00:35:51.044Z,0.64
2024-01-19T00:36:51.035Z,0.63
2024-01-19T00:37:51.151Z,0.64
2024-01-19T00:38:51.205Z,0.62
2024-01-19T00:39:51.264Z,0.64
2024-01-19T00:40:51.312Z,0.62
2024-01-19T00:41:51.479Z,0.63
2024-01-19T00:42:51.450Z,0.64
2024-01-19T00:43:51.522Z,0.63
2024-01-19T00:44:51.682Z,0.62
2024-01-19T00:45:51.651Z,0.63
2024-01-19T00:46:51.718Z,0.63
2024-01-19T00:47:51.837Z,0.63
2024-01-19T00:48:51.919Z,0.62
2024-01-19T00:49:51.906Z,0.62
2024-01-19T00:50:52.106Z,0.62
2024-01-19T00:51:52.048Z,0.62
2024-01-19T00:52:52.112Z,0.63
2024-01-19T00:53:52.261Z,0.62
2024-01-19T00:54:52.249Z,0.62
2024-01-19T00:55:52.327Z,0.61
2024-01-19T00:56:52.401Z,0.61
2024-01-19T00:57:52.469Z,0.62
2024-01-19T00:58:52.528Z,0.62
2024-01-19T00:59:52.645Z,0.61
2024-01-19T01:00:52.727Z,0.61
2024-01-19T01:01:52.721Z,0.62
2024-01-19T01:02:52.895Z,0.61
2024-01-19T01:03:52.870Z,0.60
2024-01-19T01:04:52.938Z,0.61
2024-01-19T01:05:53.104Z,0.60
2024-01-19T01:06:53.090Z,0.60
2024-01-19T01:07:53.158Z,0.60
2024-01-19T01:08:53.285Z,0.61
2024-01-19T01:09:53.245Z,0.61
2024-01-19T01:10:53.316Z,0.60
2024-01-19T01:11:53.429Z,0.60
2024-01-19T01:12:53.432Z,0.59
2024-01-19T01:13:53.499Z,0.61
2024-01-19T01:14:53.671Z,0.61
2024-01-19T01:15:53.652Z,0.59
2024-01-19T01:16:53.687Z,0.59
2024-01-19T01:17:53.845Z,0.60
2024-01-19T01:18:53.867Z,0.59
2024-01-19T01:19:53.882Z,0.61
2024-01-19T01:20:54.022Z,0.60
2024-01-19T01:21:54.008Z,0.58
2024-01-19T01:22:54.067Z,0.60
2024-01-19T01:23:54.177Z,0.59
2024-01-19T01:24:54.204Z,0.59
2024-01-19T01:25:54.288Z,0.59
2024-01-19T01:26:54.497Z,0.58
2024-01-19T01:27:54.391Z,0.59
2024-01-19T01:28:54.480Z,0.59
2024-01-19T01:29:54.645Z,0.59
2024-01-19T01:30:54.606Z,0.58
2024-01-19T01:31:54.667Z,0.58
2024-01-19T01:32:54.896Z,0.58
2024-01-19T01:33:54.877Z,0.58
2024-01-19T01:34:54.883Z,0.59
2024-01-19T01:35:55.022Z,0.58
2024-01-19T01:36:55.042Z,0.57
2024-01-19T01:37:55.067Z,0.58
2024-01-19T01:38:55.252Z,0.58
2024-01-19T01:39:55.197Z,0.58
2024-01-19T01:40:55.291Z,0.57
2024-01-19T01:41:55.369Z,0.58
2024-01-19T01:42:55.402Z,0.58
2024-01-19T01:43:55.462Z,0.57
2024-01-19T01:44:55.642Z,0.57
2024-01-19T01:45:55.592Z,0.56
2024-01-19T01:46:55.665Z,0.57
2024-01-19T01:47:56.026Z,0.57
2024-01-19T01:48:55.974Z,0.58
2024-01-19T01:49:55.939Z,0.57
2024-01-19T01:50:56.015Z,0.57
2024-01-19T01:51:56.005Z,0.56
2024-01-19T01:52:56.068Z,0.58
2024-01-19T01:53:56.163Z,0.57
2024-01-19T01:54:56.199Z,0.57
2024-01-19T01:55:56.274Z,0.57
2024-01-19T01:56:56.398Z,0.57
2024-01-19T01:57:56.408Z,0.57
2024-01-19T01:58:56.497Z,0.57
2024-01-19T01:59:56.589Z,0.56
2024-01-19T02:00:56.608Z,0.56
2024-01-19T02:01:56.662Z,0.56
2024-01-19T02:02:56.721Z,0.57
2024-01-19T02:03:56.785Z,0.56
2024-01-19T02:04:56.870Z,0.55
2024-01-19T02:06:19.349Z,0.55
2024-01-19T02:06:57.177Z,0.55
2024-01-19T02:07:56.989Z,0.56
2024-01-19T02:08:56.961Z,0.56
2024-01-19T02:09:56.918Z,0.57
2024-01-19T02:10:56.969Z,0.57
2024-01-19T02:11:56.944Z,0.58
2024-01-19T02:12:56.922Z,0.59
2024-01-19T02:13:56.945Z,0.58
2024-01-19T02:14:56.972Z,0.56
2024-01-19T02:15:56.928Z,0.58
2024-01-19T02:16:56.974Z,0.55
2024-01-19T02:17:57.028Z,0.58
2024-01-19T02:18:57.044Z,0.56
2024-01-19T02:19:56.928Z,0.57
2024-01-19T02:20:56.959Z,0.56
2024-01-19T02:21:57.093Z,0.55
2024-01-19T02:22:57.017Z,0.56
2024-01-19T02:23:57.104Z,0.55
2024-01-19T02:24:57.159Z,0.54
2024-01-19T02:25:57.206Z,0.55
2024-01-19T02:26:57.343Z,0.56
2024-01-19T02:27:57.357Z,0.56
2024-01-19T02:28:57.406Z,0.55
2024-01-19T02:29:57.474Z,0.54
2024-01-19T02:30:57.529Z,0.55
2024-01-19T02:31:57.601Z,0.55
2024-01-19T02:32:57.733Z,0.55
2024-01-19T02:33:57.753Z,0.55
2024-01-19T02:34:57.813Z,0.54
2024-01-19T02:35:57.925Z,0.55
2024-01-19T02:36:57.939Z,0.54
2024-01-19T02:37:57.985Z,0.54
2024-01-19T02:38:58.092Z,0.54
2024-01-19T02:39:58.144Z,0.54
2024-01-19T02:40:58.191Z,0.54
2024-01-19T02:41:58.252Z,0.54
2024-01-19T02:42:58.316Z,0.54
2024-01-19T02:43:58.388Z,0.54
2024-01-19T02:44:58.460Z,0.55
2024-01-19T02:45:58.514Z,0.53
2024-01-19T02:46:58.585Z,0.53
2024-01-19T02:47:58.731Z,0.54
2024-01-19T02:48:58.766Z,0.53
2024-01-19T02:49:58.786Z,0.52
2024-01-19T02:50:59.141Z,0.54
2024-01-19T02:51:58.894Z,0.53
2024-01-19T02:52:58.988Z,0.53
2024-01-19T02:53:59.045Z,0.53
2024-01-19T02:54:59.118Z,0.52
2024-01-19T02:55:59.702Z,0.53
2024-01-19T02:56:59.320Z,0.54
2024-01-19T02:57:59.301Z,0.52
2024-01-19T02:58:59.378Z,0.54
2024-01-19T02:59:59.465Z,0.53
2024-01-19T03:00:59.570Z,0.52
2024-01-19T03:01:59.582Z,0.53
2024-01-19T03:02:59.730Z,0.52
2024-01-19T03:03:59.685Z,0.52
2024-01-19T03:04:59.827Z,0.53
2024-01-19T03:05:59.901Z,0.53
2024-01-19T03:06:59.933Z,0.51
2024-01-19T03:07:59.967Z,0.53
2024-01-19T03:09:00.041Z,0.51
2024-01-19T03:10:00.106Z,0.52
2024-01-19T03:11:00.195Z,0.52
2024-01-19T03:12:00.252Z,0.52
2024-01-19T03:13:00.305Z,0.52
2024-01-19T03:14:00.359Z,0.52
2024-01-19T03:15:00.491Z,0.52
2024-01-19T03:16:00.483Z,0.51
2024-01-19T03:17:00.526Z,0.52
2024-01-19T03:18:00.734Z,0.51
2024-01-19T03:19:00.661Z,0.52
2024-01-19T03:20:00.742Z,0.52
2024-01-19T03:21:00.827Z,0.52
2024-01-19T03:22:00.887Z,0.50
2024-01-19T03:23:00.936Z,0.52
2024-01-19T03:24:01.033Z,0.52
2024-01-19T03:25:01.062Z,0.51
2024-01-19T03:26:01.201Z,0.51
2024-01-19T03:27:01.299Z,0.52
2024-01-19T03:28:01.265Z,0.51
2024-01-19T03:29:01.328Z,0.51
2024-01-19T03:30:01.611Z,0.50
2024-01-19T03:31:01.472Z,0.53
2024-01-19T03:32:01.530Z,0.52
2024-01-19T03:33:01.769Z,0.51
2024-01-19T03:34:01.799Z,0.51
2024-01-19T03:35:01.748Z,0.51
2024-01-19T03:37:01.859Z,0.51
2024-01-19T03:38:01.954Z,0.50
2024-01-19T03:39:02.037Z,0.51
2024-01-19T03:40:02.082Z,0.51
2024-01-19T03:41:02.193Z,0.52
2024-01-19T03:42:02.287Z,0.52
2024-01-19T03:43:02.278Z,0.52
2024-01-19T03:44:02.356Z,0.51
2024-01-19T03:45:02.500Z,0.51
2024-01-19T03:46:02.480Z,0.51
2024-01-19T03:47:02.578Z,0.51
2024-01-19T03:48:02.755Z,0.52
2024-01-19T03:49:02.687Z,0.51
2024-01-19T03:50:02.900Z,0.51
2024-01-19T03:51:02.855Z,0.52
2024-01-19T03:52:02.860Z,0.52
2024-01-19T03:53:02.941Z,0.51
2024-01-19T03:54:03.057Z,0.52
2024-01-19T03:55:03.067Z,0.51
2024-01-19T03:56:03.141Z,0.51
2024-01-19T03:57:03.219Z,0.52
2024-01-19T03:58:03.293Z,0.51
2024-01-19T03:59:03.365Z,0.52
2024-01-19T04:00:03.442Z,0.52
2024-01-19T04:01:03.513Z,0.52
2024-01-19T04:02:03.559Z,0.52
2024-01-19T04:03:03.778Z,0.50
2024-01-19T04:04:03.730Z,0.52
2024-01-19T04:05:03.761Z,0.51
2024-01-19T04:06:04.029Z,0.52
2024-01-19T04:07:03.971Z,0.51
2024-01-19T04:08:03.982Z,0.52
2024-01-19T04:09:04.059Z,0.52
2024-01-19T04:10:04.103Z,0.51
2024-01-19T04:11:04.175Z,0.52
2024-01-19T04:12:04.255Z,0.52
2024-01-19T04:13:04.309Z,0.51
2024-01-19T04:14:04.373Z,0.52
2024-01-19T04:15:04.513Z,0.51
2024-01-19T04:16:04.549Z,0.52
2024-01-19T04:17:04.577Z,0.52
2024-01-19T04:18:04.785Z,0.51
2024-01-19T04:19:04.807Z,0.52
2024-01-19T04:20:04.803Z,0.52
2024-01-19T04:21:04.932Z,0.51
2024-01-19T04:22:04.895Z,0.50
2024-01-19T04:23:04.966Z,0.50
2024-01-19T04:24:06.033Z,0.51
2024-01-19T04:25:05.102Z,0.50
2024-01-19T04:26:05.222Z,0.51
2024-01-19T04:27:05.265Z,0.52
2024-01-19T04:28:05.310Z,0.52
2024-01-19T04:29:05.412Z,0.51
2024-01-19T04:30:05.460Z,0.51
2024-01-19T04:31:05.512Z,0.51
2024-01-19T04:32:05.580Z,0.50
2024-01-19T04:33:05.854Z,0.51
2024-01-19T04:34:05.868Z,0.51
2024-01-19T04:35:05.786Z,0.52
2024-01-19T04:36:05.928Z,0.51
2024-01-19T04:37:05.898Z,0.52
2024-01-19T04:38:05.971Z,0.50
2024-01-19T04:39:06.016Z,0.51
2024-01-19T04:40:06.077Z,0.51
2024-01-19T04:41:06.633Z,0.51
2024-01-19T04:42:06.176Z,0.51
2024-01-19T04:43:06.223Z,0.52
2024-01-19T04:44:06.287Z,0.51
2024-01-19T04:45:06.396Z,0.51
2024-01-19T04:46:13.707Z,0.50
2024-01-19T04:47:13.667Z,0.50
2024-01-19T04:48:13.799Z,0.50
2024-01-19T04:49:13.680Z,0.50
2024-01-19T04:50:13.675Z,0.50
2024-01-19T04:51:13.677Z,0.50
2024-01-19T04:52:13.700Z,0.52
2024-01-19T04:53:13.664Z,0.51
2024-01-19T04:54:13.683Z,0.50
2024-01-19T04:55:13.676Z,0.52
2024-01-19T04:56:13.697Z,0.51
2024-01-19T04:57:13.671Z,0.52
2024-01-19T04:58:13.672Z,0.50
2024-01-19T04:59:13.664Z,0.51
2024-01-19T05:00:13.680Z,0.51
2024-01-19T05:01:13.727Z,0.50
2024-01-19T05:02:14.804Z,0.52
2024-01-19T05:03:13.701Z,0.52
2024-01-19T05:04:13.739Z,0.53
2024-01-19T05:05:13.723Z,0.52
2024-01-19T05:06:13.749Z,0.52
2024-01-19T05:07:13.730Z,0.53
2024-01-19T05:08:13.680Z,0.52
2024-01-19T05:09:13.689Z,0.52
2024-01-19T05:10:13.670Z,0.52
2024-01-19T05:11:13.702Z,0.52
2024-01-19T05:12:13.680Z,0.51
2024-01-19T05:13:13.696Z,0.52
2024-01-19T05:14:13.675Z,0.52
2024-01-19T05:15:13.688Z,0.52
2024-01-19T05:16:13.688Z,0.51
2024-01-19T05:17:13.692Z,0.52
2024-01-19T05:18:13.749Z,0.50
2024-01-19T05:19:13.721Z,0.52
2024-01-19T05:20:13.701Z,0.51
2024-01-19T05:21:13.712Z,0.51
2024-01-19T05:22:13.685Z,0.52
2024-01-19T05:23:13.702Z,0.50
2024-01-19T05:24:13.687Z,0.50
2024-01-19T05:25:13.718Z,0.51
2024-01-19T05:26:13.718Z,0.52
2024-01-19T05:27:13.699Z,0.52
2024-01-19T05:28:13.692Z,0.52
2024-01-19T05:29:13.696Z,0.51
2024-01-19T05:30:13.687Z,0.50
2024-01-19T05:31:13.696Z,0.52
2024-01-19T05:32:13.729Z,0.51
2024-01-19T05:33:13.806Z,0.51
2024-01-19T05:34:13.807Z,0.52
2024-01-19T05:35:13.711Z,0.52
2024-01-19T05:36:13.700Z,0.52
2024-01-19T05:37:13.707Z,0.51
2024-01-19T05:38:13.734Z,0.51
2024-01-19T05:39:13.691Z,0.52
2024-01-19T05:40:14.030Z,0.52
2024-01-19T05:41:13.710Z,0.51
2024-01-19T05:42:13.707Z,0.52
2024-01-19T05:43:13.700Z,0.51
2024-01-19T05:44:13.734Z,0.52
2024-01-19T05:45:13.741Z,0.51
2024-01-19T05:46:13.744Z,0.52
2024-01-19T05:47:13.727Z,0.52
2024-01-19T05:48:13.761Z,0.51
2024-01-19T05:49:13.770Z,0.51
2024-01-19T05:50:13.728Z,0.51
2024-01-19T05:51:13.716Z,0.52
2024-01-19T05:52:13.731Z,0.52
2024-01-19T05:53:13.723Z,0.52
2024-01-19T05:54:13.719Z,0.52
2024-01-19T05:55:13.734Z,0.53
2024-01-19T05:56:13.778Z,0.51
2024-01-19T05:57:13.723Z,0.53
2024-01-19T05:58:13.735Z,0.51
2024-01-19T05:59:13.756Z,0.51
2024-01-19T06:00:13.825Z,0.51
2024-01-19T06:01:13.795Z,0.52
2024-01-19T06:02:13.768Z,0.51
2024-01-19T06:03:13.835Z,0.51
2024-01-19T06:04:13.741Z,0.51
2024-01-19T06:05:13.800Z,0.52
2024-01-19T06:06:13.802Z,0.50
2024-01-19T06:07:13.761Z,0.51
2024-01-19T06:08:13.775Z,0.52
2024-01-19T06:09:13.739Z,0.52
2024-01-19T06:10:13.745Z,0.50
2024-01-19T06:11:13.774Z,0.51
2024-01-19T06:12:13.741Z,0.51
2024-01-19T06:13:13.757Z,0.51
2024-01-19T06:14:13.757Z,0.53
2024-01-19T06:15:13.756Z,0.51
2024-01-19T06:16:13.756Z,0.50
2024-01-19T06:17:13.756Z,0.51
2024-01-19T06:18:13.835Z,0.52
2024-01-19T06:19:13.829Z,0.51
2024-01-19T06:20:13.737Z,0.51
2024-01-19T06:21:13.770Z,0.51
2024-01-19T06:22:13.759Z,0.51
2024-01-19T06:23:13.758Z,0.52
2024-01-19T06:24:13.783Z,0.51
2024-01-19T06:25:13.773Z,0.51
2024-01-19T06:26:13.866Z,0.51
2024-01-19T06:27:13.766Z,0.51
2024-01-19T06:28:13.752Z,0.51
2024-01-19T06:29:13.763Z,0.52
2024-01-19T06:30:13.787Z,0.50
2024-01-19T06:31:13.910Z,0.51
2024-01-19T06:32:13.783Z,0.51
2024-01-19T06:33:13.908Z,0.51
2024-01-19T06:34:13.780Z,0.51
2024-01-19T06:35:13.800Z,0.51
2024-01-19T06:36:13.958Z,0.51
2024-01-19T06:37:13.769Z,0.51
2024-01-19T06:38:13.910Z,0.51
2024-01-19T06:39:13.802Z,0.51
2024-01-19T06:40:13.869Z,0.51
2024-01-19T06:41:13.767Z,0.52
2024-01-19T06:42:13.812Z,0.53
2024-01-19T06:43:13.760Z,0.52
2024-01-19T06:44:13.786Z,0.51
2024-01-19T06:45:13.848Z,0.51
2024-01-19T06:46:14.441Z,0.50
2024-01-19T06:47:13.778Z,0.51
2024-01-19T06:48:13.930Z,0.50
2024-01-19T06:49:14.017Z,0.50
2024-01-19T06:50:13.949Z,0.51
2024-01-19T06:51:14.087Z,0.51
2024-01-19T06:52:14.100Z,0.50
2024-01-19T06:53:14.052Z,0.50
2024-01-19T06:54:14.127Z,0.50
2024-01-19T06:55:14.156Z,0.51
2024-01-19T06:56:14.347Z,0.51
2024-01-19T06:57:14.402Z,0.52
2024-01-19T06:58:14.346Z,0.52
2024-01-19T06:59:14.478Z,0.51
2024-01-19T07:00:14.592Z,0.51
2024-01-19T07:01:14.610Z,0.52
2024-01-19T07:02:14.620Z,0.51
2024-01-19T07:03:14.730Z,0.53
2024-01-19T07:04:14.842Z,0.53
2024-01-19T07:05:14.846Z,0.53
2024-01-19T07:06:15.036Z,0.54
2024-01-19T07:07:15.011Z,0.54
2024-01-19T07:08:14.997Z,0.54
2024-01-19T07:09:15.069Z,0.53
2024-01-19T07:10:15.070Z,0.54
2024-01-19T07:11:15.168Z,0.53
2024-01-19T07:12:15.140Z,0.54
2024-01-19T07:13:15.138Z,0.53
2024-01-19T07:14:15.166Z,0.53
2024-01-19T07:15:15.304Z,0.53
2024-01-19T07:16:15.202Z,0.54
2024-01-19T07:17:16.721Z,0.55
2024-01-19T07:18:15.281Z,0.53
2024-01-19T07:19:15.247Z,0.54
2024-01-19T07:20:15.237Z,0.55
2024-01-19T07:21:15.417Z,0.55
2024-01-19T07:22:15.229Z,0.53
2024-01-19T07:23:15.227Z,0.53
2024-01-19T07:24:15.316Z,0.53
2024-01-19T07:25:15.256Z,0.53
2024-01-19T07:26:15.257Z,0.54
2024-01-19T07:27:15.868Z,0.53
2024-01-19T07:28:15.267Z,0.54
2024-01-19T07:29:15.341Z,0.54
2024-01-19T07:30:15.296Z,0.55
2024-01-19T07:31:15.334Z,0.55
2024-01-19T07:32:15.295Z,0.54
2024-01-19T07:33:19.904Z,0.54
2024-01-19T07:34:16.464Z,0.54
2024-01-19T07:35:15.526Z,0.54
2024-01-19T07:36:15.402Z,0.54
2024-01-19T07:37:15.328Z,0.54
2024-01-19T07:38:15.292Z,0.54
2024-01-19T07:39:15.388Z,0.54
2024-01-19T07:40:15.387Z,0.52
2024-01-19T07:41:15.299Z,0.52
2024-01-19T07:42:15.366Z,0.51
2024-01-19T07:43:15.376Z,0.51
2024-01-19T07:44:15.362Z,0.51
2024-01-19T07:45:15.311Z,0.52
2024-01-19T07:46:15.305Z,0.54
2024-01-19T07:47:15.365Z,0.53
2024-01-19T07:48:15.496Z,0.54
2024-01-19T07:49:15.461Z,0.54
2024-01-19T07:50:15.527Z,0.54
2024-01-19T07:51:15.578Z,0.54
2024-01-19T07:52:15.614Z,0.56
2024-01-19T07:53:15.606Z,0.54
2024-01-19T07:54:15.649Z,0.53
2024-01-19T07:55:15.669Z,0.60
2024-01-19T07:56:15.687Z,0.58
2024-01-19T07:57:15.740Z,0.60
2024-01-19T07:58:15.722Z,0.63
2024-01-19T07:59:15.825Z,0.63
2024-01-19T08:00:15.887Z,0.61
2024-01-19T08:01:15.883Z,0.63
2024-01-19T08:02:15.869Z,0.67
2024-01-19T08:03:15.859Z,0.68
2024-01-19T08:04:15.822Z,0.72
2024-01-19T08:05:16.110Z,0.72
2024-01-19T08:06:16.035Z,0.78
2024-01-19T08:07:16.029Z,0.84
2024-01-19T08:08:16.128Z,0.81
2024-01-19T08:09:16.206Z,0.82
2024-01-19T08:10:16.276Z,0.83
2024-01-19T08:11:16.344Z,0.83
2024-01-19T08:12:17.205Z,0.90
2024-01-19T08:13:16.422Z,0.87
2024-01-19T08:14:16.476Z,0.87
2024-01-19T08:15:16.532Z,0.91
2024-01-19T08:16:16.912Z,0.91
2024-01-19T08:17:16.643Z,0.93
2024-01-19T08:18:16.859Z,0.89
2024-01-19T08:19:16.793Z,0.89
2024-01-19T08:20:16.792Z,0.92
2024-01-19T08:21:16.858Z,0.92
2024-01-19T08:22:16.878Z,0.92
2024-01-19T08:23:17.029Z,0.94
2024-01-19T08:24:16.915Z,1.00
2024-01-19T08:25:16.951Z,0.96
2024-01-19T08:26:17.019Z,1.02
2024-01-19T08:27:16.977Z,1.01
2024-01-19T08:28:17.075Z,1.06
2024-01-19T08:29:17.073Z,1.04
2024-01-19T08:30:17.066Z,1.06
2024-01-19T08:31:17.879Z,1.07
2024-01-19T08:32:17.100Z,1.04
2024-01-19T08:33:17.393Z,1.00
2024-01-19T08:34:17.268Z,1.00
2024-01-19T08:35:17.170Z,1.01
2024-01-19T08:36:17.201Z,1.01
2024-01-19T08:37:17.253Z,1.04
2024-01-19T08:38:17.298Z,1.01
2024-01-19T08:39:17.338Z,1.00
2024-01-19T08:40:17.358Z,0.98
2024-01-19T08:41:17.445Z,0.97
2024-01-19T08:42:17.361Z,0.96
2024-01-19T08:43:17.382Z,0.96
2024-01-19T08:44:17.379Z,0.95
2024-01-19T08:45:17.451Z,0.95
2024-01-19T08:46:17.447Z,0.93
2024-01-19T08:47:17.416Z,0.95
2024-01-19T08:48:17.729Z,0.92
2024-01-19T08:49:17.484Z,0.91
2024-01-19T08:50:17.433Z,0.88
2024-01-19T08:51:17.893Z,0.88
2024-01-19T08:52:17.878Z,0.87
2024-01-19T08:53:17.449Z,0.85
2024-01-19T08:54:17.468Z,0.85
2024-01-19T08:55:17.491Z,0.85
2024-01-19T08:56:17.932Z,0.82
2024-01-19T08:57:17.574Z,0.80
2024-01-19T08:58:17.545Z,0.79
2024-01-19T08:59:17.743Z,0.76
2024-01-19T09:00:17.707Z,0.77
2024-01-19T09:01:17.913Z,0.75
2024-01-19T09:02:17.914Z,0.76
2024-01-19T09:03:17.846Z,0.76
2024-01-19T09:04:17.791Z,0.79
2024-01-19T09:05:17.741Z,0.76
2024-01-19T09:06:18.221Z,0.77
2024-01-19T09:07:18.391Z,0.78
2024-01-19T09:08:17.744Z,0.77
2024-01-19T09:09:17.741Z,0.79
2024-01-19T09:10:17.758Z,0.78
2024-01-19T09:11:17.892Z,0.80
2024-01-19T09:12:17.848Z,0.79
2024-01-19T09:13:17.864Z,0.80
2024-01-19T09:14:17.890Z,0.79
2024-01-19T09:15:17.893Z,0.80
2024-01-19T09:16:17.908Z,0.80
2024-01-19T09:17:17.898Z,0.79
2024-01-19T09:18:18.011Z,0.82
2024-01-19T09:19:18.036Z,0.85
2024-01-19T09:20:18.090Z,0.86
2024-01-19T09:21:18.142Z,0.90
2024-01-19T09:22:18.219Z,0.89
2024-01-19T09:23:18.259Z,0.90
2024-01-19T09:24:18.332Z,0.89
2024-01-19T09:25:18.395Z,0.89
2024-01-19T09:26:18.468Z,0.90
2024-01-19T09:27:18.544Z,0.89
2024-01-19T09:28:18.622Z,0.89
2024-01-19T09:29:18.581Z,0.88
2024-01-19T09:30:18.586Z,0.89
2024-01-19T09:31:18.631Z,0.87
2024-01-19T09:32:18.925Z,0.89
2024-01-19T09:33:18.664Z,0.86
2024-01-19T09:34:18.665Z,0.87
2024-01-19T09:35:18.632Z,0.87
2024-01-19T09:36:18.666Z,0.86
2024-01-19T09:37:18.655Z,0.86
2024-01-19T09:38:18.692Z,0.87
2024-01-19T09:39:18.708Z,0.85
2024-01-19T09:40:18.924Z,0.85
2024-01-19T09:41:18.792Z,0.86
2024-01-19T09:42:18.819Z,0.85
2024-01-19T09:43:18.872Z,0.85
2024-01-19T09:44:18.918Z,0.86
2024-01-19T09:45:19.576Z,0.85
2024-01-19T09:46:19.014Z,0.84
2024-01-19T09:47:19.034Z,0.85
2024-01-19T09:48:19.175Z,0.84
2024-01-19T09:49:19.123Z,0.85
2024-01-19T09:50:19.127Z,0.88
2024-01-19T09:51:19.135Z,0.89
2024-01-19T09:52:19.419Z,0.89
2024-01-19T09:53:19.170Z,0.90
2024-01-19T09:54:19.185Z,0.93
2024-01-19T09:55:19.411Z,0.93
2024-01-19T09:56:19.256Z,0.98
2024-01-19T09:57:19.220Z,1.00
2024-01-19T09:58:19.221Z,1.08
2024-01-19T09:59:19.228Z,1.07
2024-01-19T10:00:19.287Z,1.09
2024-01-19T10:01:19.304Z,1.13
2024-01-19T10:02:19.430Z,1.16
2024-01-19T10:03:19.340Z,1.15
2024-01-19T10:04:19.281Z,1.20
2024-01-19T10:05:19.339Z,1.18
2024-01-19T10:06:19.346Z,1.25
2024-01-19T10:07:19.431Z,1.25
2024-01-19T10:08:19.279Z,1.25
2024-01-19T10:09:19.312Z,1.31
2024-01-19T10:10:19.355Z,1.40
2024-01-19T10:11:19.328Z,1.46
2024-01-19T10:12:19.364Z,1.49
2024-01-19T10:13:19.404Z,1.51
2024-01-19T10:14:19.430Z,1.50
2024-01-19T10:15:19.492Z,1.51
2024-01-19T10:16:19.512Z,1.74
2024-01-19T10:17:19.928Z,1.77
2024-01-19T10:18:19.750Z,1.78
2024-01-19T10:19:19.705Z,1.88
2024-01-19T10:20:19.800Z,1.93
2024-01-19T10:21:19.820Z,1.98
2024-01-19T10:22:19.921Z,2.02
2024-01-19T10:23:19.942Z,2.07
2024-01-19T10:24:19.996Z,2.02
2024-01-19T10:25:20.124Z,2.06
2024-01-19T10:26:20.102Z,2.10
2024-01-19T10:27:20.163Z,2.13
2024-01-19T10:28:20.257Z,2.10
2024-01-19T10:29:20.290Z,2.01
2024-01-19T10:30:20.372Z,1.89
2024-01-19T10:31:20.400Z,1.90
2024-01-19T10:32:20.453Z,1.86
2024-01-19T10:33:20.577Z,1.86
2024-01-19T10:34:20.679Z,1.82
2024-01-19T10:35:20.612Z,1.63
2024-01-19T10:36:20.716Z,1.49
2024-01-19T10:37:20.971Z,1.32
2024-01-19T10:38:20.826Z,1.23
2024-01-19T10:39:20.912Z,1.11
2024-01-19T10:40:20.952Z,1.03
2024-01-19T10:41:21.013Z,0.96
2024-01-19T10:42:21.424Z,0.90
2024-01-19T10:43:21.054Z,0.85
2024-01-19T10:44:21.069Z,0.79
2024-01-19T10:45:21.051Z,0.75
2024-01-19T10:46:21.121Z,0.72
2024-01-19T10:47:21.102Z,0.67
2024-01-19T10:48:21.210Z,0.66
2024-01-19T10:49:21.270Z,0.63
2024-01-19T10:50:21.198Z,0.59
2024-01-19T10:51:21.251Z,0.58
2024-01-19T10:52:21.301Z,0.56
2024-01-19T10:53:21.306Z,0.54
2024-01-19T10:54:21.337Z,0.51
2024-01-19T10:55:21.396Z,0.50
2024-01-19T10:56:21.481Z,0.50
2024-01-19T10:57:21.487Z,0.51
2024-01-19T10:58:21.522Z,0.50
2024-01-19T10:59:21.578Z,0.50
2024-01-19T11:00:21.626Z,0.51
2024-01-19T11:01:21.732Z,0.50
2024-01-19T11:02:21.739Z,0.51
2024-01-19T11:03:21.790Z,0.50
2024-01-19T11:04:21.827Z,0.51
2024-01-19T11:05:21.879Z,0.51
2024-01-19T11:06:22.061Z,0.50
2024-01-19T11:07:22.143Z,0.51
2024-01-19T11:08:22.055Z,0.52
2024-01-19T11:09:22.084Z,0.51
2024-01-19T11:10:22.147Z,0.51
2024-01-19T11:11:22.216Z,0.52
2024-01-19T11:12:22.281Z,0.52
2024-01-19T11:13:22.357Z,0.52
2024-01-19T11:14:22.374Z,0.53
2024-01-19T11:15:22.447Z,0.53
2024-01-19T11:16:22.500Z,0.54
2024-01-19T11:17:22.608Z,0.55
2024-01-19T11:18:22.781Z,0.55
2024-01-19T11:19:22.794Z,0.55
2024-01-19T11:20:22.748Z,0.55
2024-01-19T11:21:22.870Z,0.56
2024-01-19T11:22:22.903Z,0.57
2024-01-19T11:23:22.973Z,0.57
2024-01-19T11:24:23.039Z,0.59
2024-01-19T11:25:23.081Z,0.58
2024-01-19T11:26:23.126Z,0.59
2024-01-19T11:27:23.185Z,0.59
2024-01-19T11:28:23.243Z,0.62
2024-01-19T11:29:23.290Z,0.62
2024-01-19T11:30:23.412Z,0.62
2024-01-19T11:31:23.418Z,0.63
2024-01-19T11:32:23.588Z,0.63
2024-01-19T11:33:23.659Z,0.65
2024-01-19T11:34:24.504Z,0.66
2024-01-19T11:35:23.691Z,0.66
2024-01-19T11:36:23.731Z,0.68
2024-01-19T11:37:23.970Z,0.68
2024-01-19T11:38:23.857Z,0.69
2024-01-19T11:39:23.919Z,0.72
2024-01-19T11:40:24.065Z,0.71
2024-01-19T11:41:24.070Z,0.72
2024-01-19T11:42:24.482Z,0.73
2024-01-19T11:43:24.182Z,0.75
2024-01-19T11:44:24.220Z,0.74
2024-01-19T11:45:24.290Z,0.74
2024-01-19T11:46:24.365Z,0.76
2024-01-19T11:47:24.533Z,0.76
2024-01-19T11:48:24.585Z,0.75
2024-01-19T11:49:24.611Z,0.76
2024-01-19T11:50:24.648Z,0.76
2024-01-19T11:51:24.682Z,0.75
2024-01-19T11:52:24.742Z,0.74
2024-01-19T11:53:24.788Z,0.72
2024-01-19T11:54:24.883Z,0.71
2024-01-19T11:55:24.940Z,0.69
2024-01-19T11:56:25.068Z,0.68
2024-01-19T11:57:25.042Z,0.68
2024-01-19T11:58:25.138Z,0.66
2024-01-19T11:59:25.270Z,0.65
2024-01-19T12:00:25.236Z,0.64
2024-01-19T12:01:25.332Z,0.64
2024-01-19T12:02:25.368Z,0.66
2024-01-19T12:03:25.444Z,0.64
2024-01-19T12:04:25.534Z,0.63
2024-01-19T12:05:25.658Z,0.63
2024-01-19T12:06:25.675Z,0.61
2024-01-19T12:07:25.986Z,0.60
2024-01-19T12:08:25.783Z,0.60
2024-01-19T12:09:25.913Z,0.58
2024-01-19T12:10:25.992Z,0.57
2024-01-19T12:11:26.013Z,0.57
2024-01-19T12:12:26.027Z,0.55
2024-01-19T12:13:26.074Z,0.54
2024-01-19T12:14:26.174Z,0.51
2024-01-19T12:15:26.246Z,0.52
2024-01-19T12:16:26.264Z,0.51
2024-01-19T12:17:26.337Z,0.52
2024-01-19T12:18:26.403Z,0.51
2024-01-19T12:19:26.454Z,0.52
2024-01-19T12:20:26.511Z,0.51
2024-01-19T12:21:26.563Z,0.51
2024-01-19T12:22:26.580Z,0.51
2024-01-19T12:23:26.616Z,0.51
2024-01-19T12:24:26.679Z,0.52
2024-01-19T12:25:26.874Z,0.51
2024-01-19T12:26:26.902Z,0.50
2024-01-19T12:27:26.867Z,0.50
2024-01-19T12:28:26.944Z,0.51
2024-01-19T12:29:26.986Z,0.50
2024-01-19T12:30:27.056Z,0.50
2024-01-19T12:31:27.128Z,0.51
2024-01-19T12:32:27.184Z,0.51
2024-01-19T12:33:27.276Z,0.51
2024-01-19T12:34:27.318Z,0.51
2024-01-19T12:35:27.406Z,0.51
2024-01-19T12:36:27.569Z,0.50
2024-01-19T12:37:27.997Z,0.51
2024-01-19T12:38:27.568Z,0.51
2024-01-19T12:39:27.638Z,0.51
2024-01-19T12:40:27.718Z,0.51
2024-01-19T12:41:27.741Z,0.51
2024-01-19T12:42:28.002Z,0.51
2024-01-19T12:43:27.911Z,0.52
2024-01-19T12:44:27.930Z,0.51
2024-01-19T12:45:27.998Z,0.50
2024-01-19T12:46:28.129Z,0.50
2024-01-19T12:47:28.152Z,0.50
2024-01-19T12:48:32.207Z,0.52
2024-01-19T12:49:29.366Z,0.52
2024-01-19T12:50:28.292Z,0.52
2024-01-19T12:51:28.191Z,0.52
2024-01-19T12:52:28.247Z,0.51
2024-01-19T12:53:28.206Z,0.50
2024-01-19T12:54:28.209Z,0.51
2024-01-19T12:55:28.283Z,0.51
2024-01-19T12:56:28.247Z,0.51
2024-01-19T12:57:28.264Z,0.52
2024-01-19T12:58:28.357Z,0.51
2024-01-19T12:59:28.402Z,0.51
2024-01-19T13:00:28.496Z,0.51
2024-01-19T13:01:28.587Z,0.50
2024-01-19T13:02:28.613Z,0.52
2024-01-19T13:03:28.681Z,0.51
2024-01-19T13:04:28.731Z,0.52
2024-01-19T13:05:28.795Z,0.51
2024-01-19T13:06:28.790Z,0.52
2024-01-19T13:07:28.848Z,0.51
2024-01-19T13:08:28.966Z,0.51
2024-01-19T13:09:28.896Z,0.51
2024-01-19T13:10:29.070Z,0.53
2024-01-19T13:11:28.990Z,0.52
2024-01-19T13:12:28.958Z,0.53
2024-01-19T13:13:28.996Z,0.52
2024-01-19T13:14:28.984Z,0.52
2024-01-19T13:15:28.986Z,0.53
2024-01-19T13:16:29.025Z,0.52
2024-01-19T13:17:29.043Z,0.53
2024-01-19T13:18:29.072Z,0.53
2024-01-19T13:19:29.056Z,0.52
2024-01-19T13:20:29.062Z,0.51